Time;durP1;ratioP1;P1;durP2;ratioP2;P2;SDS_P1;SDS_P2;PMS_P1;PMS_P2;Temp;Humidity;BMP_temperature;BMP_pressure;BME280_temperature;BME280_humidity;BME280_pressure;Samples;Min_cycle;Max_cycle;Signal;HPM_P1;HPM_P2
2023/03/19 00:04:17;;;;;;;;;;;;;;;;;;;;;
2023/03/19 00:15:12;;;;;;;5.40;3.15;;;8.70;99.90;;;;;;5871847;24;20412;-89
2023/03/19 01:50:46;;;;;;;6.82;4.10;;;9.20;99.90;;;;;;6191465;23;20029;-87
2023/03/19 01:53:38;;;;;;;5.10;3.38;;;8.50;99.90;;;;;;6191296;23;20164;-87
2023/03/19 01:56:40;;;;;;;3.88;2.90;;;8.60;99.90;;;;;;6141353;23;20087;-87
2023/03/19 01:59:35;;;;;;;4.28;3.08;;;9.30;99.90;;;;;;6045252;23;20086;-87
2023/03/19 02:02:41;;;;;;;5.63;3.22;;;8.90;99.90;;;;;;5909524;24;20024;-89
2023/03/19 02:09:06;;;;;;;4.72;3.30;;;9.00;99.90;;;;;;5854239;24;20010;-90
2023/03/19 02:58:24;;;;;;;2.15;1.42;;;9.30;99.90;;;;;;5633935;22;15178681;-89
2023/03/19 03:16:17;;;;;;;2.80;2.10;;;9.30;99.90;;;;;;5987896;24;20020;-88
2023/03/19 03:21:52;;;;;;;5.90;2.15;;;9.30;99.90;;;;;;5932035;24;20020;-87
2023/03/19 03:24:21;;;;;;;4.22;2.55;;;9.30;99.90;;;;;;5909175;24;20021;-87
2023/03/19 03:26:49;;;;;;;4.15;2.28;;;9.30;99.90;;;;;;5932039;24;20398;-87
2023/03/19 03:29:17;;;;;;;4.90;2.45;;;9.30;99.90;;;;;;5910343;24;20013;-86
2023/03/19 03:34:47;;;;;;;;;;;;;;;;;;;;;
2023/03/19 03:37:23;;;;;;;2.88;1.60;;;9.30;99.90;;;;;;5963963;24;20008;-87
2023/03/19 03:40:02;;;;;;;;;;;;;;;;;;;;;
2023/03/19 03:42:34;;;;;;;3.00;1.48;;;9.30;99.90;;;;;;5990162;23;20011;-88
2023/03/19 03:45:17;;;;;;;4.07;2.42;;;9.30;99.90;;;;;;5994906;23;20081;-87
2023/03/19 03:48:05;;;;;;;2.47;1.60;;;9.40;99.90;;;;;;5938573;24;20036;-87
2023/03/19 03:50:46;;;;;;;3.17;1.85;;;9.40;99.90;;;;;;5959814;24;20035;-87
2023/03/19 04:01:41;;;;;;;;;;;;;;;;;;;;;
2023/03/19 04:04:17;;;;;;;2.95;1.95;;;9.70;99.90;;;;;;6080966;23;20100;-87
2023/03/19 04:11:13;;;;;;;;;;;;;;;;;;;;;
2023/03/19 04:14:02;;;;;;;3.75;2.40;;;9.50;99.90;;;;;;6225590;22;20077;-89
2023/03/19 04:23:31;;;;;;;3.20;1.70;;;9.60;99.90;;;;;;5848746;24;20497;-88
2023/03/19 04:45:52;;;;;;;;;;;;;;;;;;;;;
2023/03/19 04:52:32;;;;;;;;;;;;;;;;;;;;;
2023/03/19 04:55:35;;;;;;;2.85;1.65;;;9.50;99.90;;;;;;6102230;23;20022;-89
2023/03/19 04:58:34;;;;;;;3.28;2.10;;;9.50;99.90;;;;;;6129444;23;20018;-89
2023/03/19 05:01:16;;;;;;;5.18;2.70;;;9.50;99.90;;;;;;6041709;23;20022;-88
2023/03/19 05:11:25;;;;;;;3.35;2.00;;;9.50;99.90;;;;;;6072105;23;20061;-88
2023/03/19 05:14:01;;;;;;;3.03;1.70;;;9.30;99.90;;;;;;6131220;23;20021;-88
2023/03/19 05:16:45;;;;;;;2.70;1.48;;;9.50;99.90;;;;;;6131252;23;20022;-88
2023/03/19 05:22:36;;;;;;;2.22;1.20;;;9.40;99.90;;;;;;6131437;23;20466;-87
2023/03/19 05:25:56;;;;;;;;;;;;;;;;;;;;;
2023/03/19 05:28:51;;;;;;;2.85;1.10;;;9.30;99.90;;;;;;6106034;23;20140;-88
2023/03/19 06:20:04;;;;;;;;;;;;;;;;;;;;;
2023/03/19 06:22:48;;;;;;;;;;;;;;;;;;;;;
2023/03/19 06:25:48;;;;;;;2.13;1.25;;;8.30;99.90;;;;;;6191899;23;20017;-88
2023/03/19 06:28:34;;;;;;;;;;;8.20;99.90;;;;;;6167137;23;20021;-88
2023/03/19 06:31:45;;;;;;;;;;;;;;;;;;;;;
2023/03/19 06:35:00;;;;;;;1.98;1.30;;;8.00;99.90;;;;;;6187203;23;20075;-89
2023/03/19 06:37:50;;;;;;;2.15;1.42;;;8.10;99.90;;;;;;6192052;23;20028;-88
2023/03/19 06:40:38;;;;;;;;;;;;;;;;;;;;;
2023/03/19 06:43:42;;;;;;;2.42;1.40;;;8.30;99.90;;;;;;6122747;23;20579;-88
2023/03/19 06:46:26;;;;;;;;;;;;;;;;;;;;;
2023/03/19 06:49:07;;;;;;;;;;;;;;;;;;;;;
2023/03/19 06:52:16;;;;;;;1.75;0.85;;;8.30;99.90;;;;;;6160859;23;20017;-89
2023/03/19 06:54:47;;;;;;;1.75;1.02;;;8.30;99.90;;;;;;6165849;23;20020;-88
2023/03/19 06:57:22;;;;;;;2.35;1.17;;;8.60;99.90;;;;;;6165230;23;20060;-87
2023/03/19 07:00:01;;;;;;;1.90;1.13;;;8.60;99.90;;;;;;6190665;23;20386;-88
2023/03/19 07:03:08;;;;;;;1.90;1.10;;;8.70;99.90;;;;;;6165646;23;20091;-88
2023/03/19 07:05:46;;;;;;;2.50;1.30;;;8.70;99.90;;;;;;6186194;23;20096;-87
2023/03/19 07:16:47;;;;;;;2.17;1.05;;;9.00;99.90;;;;;;6187000;23;20016;-88
2023/03/19 07:20:06;;;;;;;;;;;;;;;;;;;;;
2023/03/19 07:22:42;;;;;;;;;;;;;;;;;;;;;
2023/03/19 07:25:46;;;;;;;5.50;1.88;;;9.70;99.90;;;;;;6019966;23;20065;-88
2023/03/19 07:28:13;;;;;;;3.85;2.00;;;9.90;99.90;;;;;;6041995;23;20090;-83
2023/03/19 07:30:46;;;;;;;5.10;3.13;;;10.00;99.90;;;;;;6066678;23;20081;-88
2023/03/19 07:33:14;;;;;;;5.13;2.90;;;10.10;99.90;;;;;;6042041;23;20022;-87
2023/03/19 07:35:40;;;;;;;7.13;3.95;;;10.20;99.90;;;;;;6066028;23;20015;-84
2023/03/19 07:38:16;;;;;;;6.07;3.75;;;10.30;99.90;;;;;;6042823;23;20375;-87
2023/03/19 07:40:42;;;;;;;6.20;3.10;;;10.30;99.90;;;;;;6066309;23;20033;-86
2023/03/19 07:43:08;;;;;;;5.20;3.10;;;10.40;99.90;;;;;;6042593;23;20018;-86
2023/03/19 07:45:39;;;;;;;6.50;2.97;;;10.40;99.90;;;;;;6066534;23;20454;-86
2023/03/19 07:48:13;;;;;;;3.90;2.55;;;10.40;99.90;;;;;;6067176;23;20109;-85
2023/03/19 07:50:44;;;;;;;8.10;3.85;;;10.00;99.90;;;;;;6042719;23;20022;-86
2023/03/19 07:53:10;;;;;;;5.05;3.40;;;10.50;99.90;;;;;;6042286;23;20114;-85
2023/03/19 07:55:39;;;;;;;6.35;3.90;;;10.90;99.90;;;;;;6042599;23;20051;-85
2023/03/19 07:58:05;;;;;;;6.18;3.88;;;10.70;99.90;;;;;;6093914;23;20028;-87
2023/03/19 08:00:33;;;;;;;8.05;3.88;;;10.80;99.90;;;;;;6159895;23;20017;-86
2023/03/19 08:03:04;;;;;;;5.35;2.85;;;10.90;99.90;;;;;;6160127;23;20110;-85
2023/03/19 08:05:36;;;;;;;7.85;3.67;;;10.70;99.90;;;;;;6186222;23;20040;-86
2023/03/19 08:08:18;;;;;;;6.47;3.47;;;11.00;99.90;;;;;;6161661;23;20080;-88
2023/03/19 08:10:44;;;;;;;9.60;4.88;;;11.20;99.90;;;;;;6158840;23;20013;-85
2023/03/19 08:13:15;;;;;;;11.02;5.60;;;11.20;99.90;;;;;;6159274;23;20364;-87
2023/03/19 08:15:41;;;;;;;9.52;5.00;;;11.30;99.90;;;;;;6186612;23;20013;-83
2023/03/19 08:18:19;;;;;;;6.25;4.13;;;11.40;99.90;;;;;;6186411;23;20510;-87
2023/03/19 08:20:53;;;;;;;7.53;4.68;;;11.40;99.90;;;;;;6154538;23;20116;-87
2023/03/19 08:23:34;;;;;;;7.20;4.28;;;11.50;99.90;;;;;;6154757;23;20029;-87
2023/03/19 08:26:05;;;;;;;6.70;3.90;;;11.60;99.90;;;;;;6154785;23;20017;-86
2023/03/19 08:29:00;;;;;;;4.65;3.03;;;11.50;99.90;;;;;;6154324;23;20018;-88
2023/03/19 08:31:29;;;;;;;8.68;4.82;;;11.50;99.90;;;;;;6155166;23;20025;-87
2023/03/19 08:34:01;;;;;;;11.57;6.25;;;11.40;99.90;;;;;;6154776;23;20116;-87
2023/03/19 08:36:36;;;;;;;8.27;5.18;;;11.40;99.90;;;;;;6156588;23;20028;-86
2023/03/19 08:39:03;;;;;;;10.02;6.30;;;11.50;99.90;;;;;;6154718;23;20425;-86
2023/03/19 08:41:29;;;;;;;10.70;6.53;;;11.70;99.90;;;;;;6156687;23;20356;-87
2023/03/19 08:43:55;;;;;;;11.70;7.13;;;11.80;99.90;;;;;;6155018;23;20096;-87
2023/03/19 08:46:26;;;;;;;10.40;6.85;;;11.90;99.90;;;;;;6156146;23;20044;-87
2023/03/19 08:48:52;;;;;;;8.50;5.72;;;11.90;99.90;;;;;;6154490;23;20025;-86
2023/03/19 08:51:18;;;;;;;6.82;4.65;;;12.10;99.90;;;;;;6156278;23;20104;-87
2023/03/19 08:53:44;;;;;;;9.45;5.68;;;12.10;99.90;;;;;;6156513;23;20017;-86
2023/03/19 08:56:10;;;;;;;11.18;7.15;;;11.70;99.90;;;;;;6154989;23;20455;-86
2023/03/19 08:58:35;;;;;;;10.82;7.05;;;12.00;99.90;;;;;;6130315;23;20021;-87
2023/03/19 09:01:08;;;;;;;10.95;6.20;;;12.10;99.90;;;;;;6155145;23;20018;-87
2023/03/19 09:03:42;;;;;;;11.23;7.38;;;12.10;99.90;;;;;;6154132;23;20029;-86
2023/03/19 09:06:10;;;;;;;11.48;6.82;;;12.00;99.90;;;;;;6129997;23;20646;-87
2023/03/19 09:08:37;;;;;;;9.40;5.93;;;12.10;99.90;;;;;;6153960;23;20049;-87
2023/03/19 09:11:06;;;;;;;9.50;5.80;;;12.10;99.90;;;;;;6154833;23;20017;-87
2023/03/19 09:13:44;;;;;;;8.95;5.65;;;12.20;99.90;;;;;;6154031;23;20060;-87
2023/03/19 09:16:13;;;;;;;10.13;6.65;;;12.20;99.90;;;;;;6155428;23;20017;-87
2023/03/19 09:18:43;;;;;;;10.90;6.82;;;12.30;99.90;;;;;;6154133;23;20029;-87
2023/03/19 09:21:19;;;;;;;9.95;6.40;;;12.40;99.90;;;;;;6153915;23;20024;-87
2023/03/19 09:23:46;;;;;;;10.60;7.05;;;12.50;99.90;;;;;;6155852;23;20344;-87
2023/03/19 09:26:16;;;;;;;8.82;6.53;;;12.40;99.90;;;;;;6153670;23;20028;-87
2023/03/19 09:28:42;;;;;;;9.40;5.90;;;12.40;99.90;;;;;;6154310;23;20021;-87
2023/03/19 09:31:10;;;;;;;9.10;5.88;;;12.50;99.90;;;;;;6154449;23;20100;-86
2023/03/19 09:33:41;;;;;;;9.50;6.40;;;12.50;99.90;;;;;;6154458;23;20437;-87
2023/03/19 09:36:07;;;;;;;9.73;6.15;;;12.50;99.90;;;;;;6154969;23;20044;-87
2023/03/19 09:38:40;;;;;;;9.80;6.35;;;12.60;99.90;;;;;;6157271;23;20053;-87
2023/03/19 09:41:59;;;;;;;10.00;5.75;;;12.50;99.90;;;;;;6154556;23;20024;-87
2023/03/19 09:44:28;;;;;;;7.05;4.95;;;12.60;99.90;;;;;;6154400;23;20032;-87
2023/03/19 09:46:57;;;;;;;8.32;5.63;;;12.50;99.90;;;;;;6155764;23;20029;-88
2023/03/19 09:49:29;;;;;;;10.32;5.70;;;12.50;99.90;;;;;;6154603;23;20018;-88
2023/03/19 09:52:31;;;;;;;9.38;5.57;;;12.10;99.90;;;;;;6129051;23;20421;-88
2023/03/19 09:55:22;;;;;;;8.38;5.25;;;12.40;99.90;;;;;;6155176;23;20659;-88
2023/03/19 09:57:54;;;;;;;8.35;5.43;;;12.50;99.90;;;;;;6153945;23;20022;-88
2023/03/19 10:00:24;;;;;;;11.20;6.68;;;12.60;99.90;;;;;;6154424;23;20040;-88
2023/03/19 10:03:16;;;;;;;10.13;6.68;;;12.70;99.90;;;;;;6154225;23;20025;-87
2023/03/19 10:05:42;;;;;;;8.90;5.55;;;12.90;99.90;;;;;;6041337;23;20029;-87
2023/03/19 10:08:25;;;;;;;7.70;4.90;;;13.00;99.90;;;;;;6065261;23;20031;-88
2023/03/19 10:11:27;;;;;;;9.27;5.18;;;13.00;99.90;;;;;;6041515;23;20021;-87
2023/03/19 10:14:40;;;;;;;9.07;5.72;;;13.00;99.90;;;;;;6040971;23;20015;-88
2023/03/19 10:17:31;;;;;;;8.07;5.18;;;13.10;99.90;;;;;;6040376;23;20042;-87
2023/03/19 10:20:10;;;;;;;9.73;6.10;;;13.10;99.90;;;;;;6040959;23;20055;-88
2023/03/19 10:22:47;;;;;;;;;;;13.10;99.90;;;;;;6041483;23;20065;-87
2023/03/19 10:25:32;;;;;;;;;;;;;;;;;;;;;
2023/03/19 10:28:17;;;;;;;9.10;5.50;;;13.00;99.90;;;;;;6059543;23;20073;-87
2023/03/19 10:31:14;;;;;;;8.93;5.45;;;13.30;99.90;;;;;;6065119;23;20015;-87
2023/03/19 10:33:51;;;;;;;8.63;5.22;;;13.30;99.90;;;;;;5984246;23;20029;-88
2023/03/19 10:36:41;;;;;;;7.00;4.60;;;13.40;99.90;;;;;;6008093;23;20024;-87
2023/03/19 10:39:14;;;;;;;6.53;4.82;;;13.50;99.90;;;;;;5985218;23;20024;-87
2023/03/19 10:42:01;;;;;;;6.93;4.00;;;13.60;99.90;;;;;;5966246;23;20059;-87
2023/03/19 10:44:32;;;;;;;11.05;6.07;;;13.80;99.90;;;;;;6038147;23;20055;-87
2023/03/19 10:47:08;;;;;;;9.00;5.22;;;13.60;99.90;;;;;;6037993;23;20549;-88
2023/03/19 10:49:40;;;;;;;7.90;4.55;;;13.50;99.90;;;;;;6014489;23;20374;-88
2023/03/19 10:52:32;;;;;;;6.20;4.18;;;13.80;99.90;;;;;;6037970;23;20042;-87
2023/03/19 10:55:24;;;;;;;8.52;5.15;;;13.90;99.90;;;;;;6038096;23;20034;-88
2023/03/19 10:58:06;;;;;;;8.68;5.05;;;14.00;99.90;;;;;;6014226;23;20024;-87
2023/03/19 11:00:34;;;;;;;7.70;4.15;;;14.10;99.90;;;;;;6014276;23;20035;-88
2023/03/19 11:03:03;;;;;;;9.85;5.63;;;14.10;99.90;;;;;;6038010;23;20023;-88
2023/03/19 11:05:35;;;;;;;6.95;4.72;;;14.10;99.90;;;;;;6014304;23;20058;-87
2023/03/19 11:08:08;;;;;;;8.40;4.45;;;14.00;99.90;;;;;;5990843;23;20031;-88
2023/03/19 11:10:44;;;;;;;9.07;5.13;;;14.00;99.90;;;;;;6073059;23;20029;-87
2023/03/19 11:13:25;;;;;;;7.40;4.97;;;14.30;99.90;;;;;;6130509;23;20021;-88
2023/03/19 11:15:59;;;;;;;9.32;5.45;;;14.00;99.90;;;;;;6155868;23;20028;-87
2023/03/19 11:18:30;;;;;;;8.60;5.40;;;14.10;99.90;;;;;;6155303;23;20733;-88
2023/03/19 11:21:04;;;;;;;8.85;5.43;;;14.00;99.90;;;;;;6172285;23;20359;-87
2023/03/19 11:23:40;;;;;;;12.80;6.97;;;14.00;99.90;;;;;;6185147;23;20057;-88
2023/03/19 11:26:09;;;;;;;11.35;6.95;;;13.90;99.90;;;;;;6184859;23;20013;-87
2023/03/19 11:28:43;;;;;;;9.40;5.88;;;13.80;99.90;;;;;;6185390;23;20052;-88
2023/03/19 11:31:12;;;;;;;14.13;7.90;;;13.70;99.90;;;;;;6185350;23;20013;-88
2023/03/19 11:33:54;;;;;;;10.65;6.22;;;13.80;99.90;;;;;;6185226;23;20079;-88
2023/03/19 11:36:44;;;;;;;12.95;7.60;;;13.70;99.90;;;;;;6186542;23;20017;-88
2023/03/19 11:39:26;;;;;;;10.63;6.57;;;13.60;99.90;;;;;;6185152;23;20021;-87
2023/03/19 11:42:09;;;;;;;9.85;6.05;;;14.20;99.90;;;;;;6184771;23;20055;-87
2023/03/19 11:45:16;;;;;;;9.57;6.35;;;13.90;99.90;;;;;;6184343;23;20021;-88
2023/03/19 11:47:58;;;;;;;12.80;7.57;;;13.90;99.90;;;;;;6184545;23;20023;-88
2023/03/19 11:50:53;;;;;;;11.02;7.15;;;14.00;99.90;;;;;;6184485;23;20444;-87
2023/03/19 11:54:04;;;;;;;11.63;6.80;;;14.10;99.90;;;;;;6186346;23;20024;-88
2023/03/19 11:56:32;;;;;;;11.18;6.57;;;14.10;99.90;;;;;;6184836;23;20028;-88
2023/03/19 11:59:19;;;;;;;12.20;6.38;;;14.10;99.90;;;;;;6185011;23;20087;-89
2023/03/19 12:02:22;;;;;;;;;;;;;;;;;;;;;
2023/03/19 12:05:15;;;;;;;13.05;8.02;;;14.20;99.90;;;;;;6180229;23;20107;-88
2023/03/19 12:07:50;;;;;;;11.77;7.07;;;14.30;99.90;;;;;;6184555;23;20025;-88
2023/03/19 12:10:37;;;;;;;11.93;6.75;;;14.20;99.90;;;;;;6185084;23;20024;-88
2023/03/19 12:13:12;;;;;;;10.20;5.90;;;14.20;99.90;;;;;;6185008;23;20055;-88
2023/03/19 12:16:08;;;;;;;11.40;7.00;;;14.10;99.90;;;;;;6184789;23;20523;-87
2023/03/19 12:18:40;;;;;;;12.43;7.20;;;13.90;99.90;;;;;;6184437;23;20614;-87
2023/03/19 12:21:12;;;;;;;10.70;6.95;;;13.30;99.90;;;;;;6184803;23;20025;-88
2023/03/19 12:23:44;;;;;;;11.50;6.70;;;14.00;99.90;;;;;;6186538;23;20049;-88
2023/03/19 12:26:50;;;;;;;10.15;5.65;;;13.90;99.90;;;;;;6186547;23;20463;-88
2023/03/19 12:29:53;;;;;;;10.88;5.95;;;13.80;99.90;;;;;;6047544;23;20042;-88
2023/03/19 12:32:55;;;;;;;10.52;6.50;;;13.80;99.90;;;;;;6037677;23;20130;-88
2023/03/19 12:35:34;;;;;;;8.98;5.10;;;13.50;99.90;;;;;;6014383;23;20090;-88
2023/03/19 12:38:27;;;;;;;8.93;5.05;;;13.40;99.90;;;;;;5990729;23;20464;-88
2023/03/19 12:41:13;;;;;;;9.52;5.85;;;13.40;99.90;;;;;;6014007;23;20045;-88
2023/03/19 12:44:16;;;;;;;7.60;4.55;;;13.60;99.90;;;;;;6037402;23;20098;-88
2023/03/19 12:47:05;;;;;;;8.15;5.18;;;13.50;99.90;;;;;;6013325;23;20395;-88
2023/03/19 12:49:50;;;;;;;10.57;5.38;;;13.50;99.90;;;;;;6013407;23;20027;-88
2023/03/19 12:52:42;;;;;;;7.90;4.90;;;13.50;99.90;;;;;;6013394;23;20041;-89
2023/03/19 12:55:35;;;;;;;8.52;4.30;;;13.50;99.90;;;;;;6013264;23;20181;-89
2023/03/19 12:58:03;;;;;;;8.23;4.60;;;13.40;99.90;;;;;;6037033;23;20355;-85
2023/03/19 13:00:46;;;;;;;11.25;5.93;;;13.40;99.90;;;;;;6012395;23;20106;-87
2023/03/19 13:03:22;;;;;;;13.07;6.32;;;13.40;99.90;;;;;;6013187;23;20019;-86
2023/03/19 13:06:36;;;;;;;12.82;6.88;;;13.30;99.90;;;;;;6037056;23;20030;-87
2023/03/19 13:09:22;;;;;;;13.18;6.78;;;13.10;99.90;;;;;;5986996;23;20348;-89
2023/03/19 13:11:58;;;;;;;11.38;5.80;;;13.10;99.90;;;;;;6037214;23;20096;-90
2023/03/19 13:14:41;;;;;;;12.40;6.57;;;13.00;99.90;;;;;;6037181;23;20019;-84
2023/03/19 13:21:45;;;;;;;14.15;7.10;;;12.70;99.90;;;;;;6157530;23;20114;-88
2023/03/19 13:24:28;;;;;;;14.55;7.85;;;13.00;99.90;;;;;;6192588;23;20029;-89
2023/03/19 13:26:59;;;;;;;14.43;7.30;;;12.90;99.90;;;;;;6217264;23;20012;-86
2023/03/19 13:29:27;;;;;;;16.23;7.82;;;12.80;99.90;;;;;;6188565;23;20027;-88
2023/03/19 13:32:22;;;;;;;16.55;7.85;;;12.80;99.90;;;;;;6188708;23;20067;-87
2023/03/19 13:34:48;;;;;;;15.23;7.53;;;12.70;99.90;;;;;;6214118;23;20031;-87
2023/03/19 13:37:17;;;;;;;14.93;8.60;;;12.70;99.90;;;;;;6214157;23;20336;-86
2023/03/19 13:39:47;;;;;;;15.23;8.18;;;12.70;99.90;;;;;;6213665;23;20490;-87
2023/03/19 13:42:19;;;;;;;15.50;7.38;;;12.70;99.90;;;;;;6213443;23;20460;-88
2023/03/19 13:44:56;;;;;;;16.67;8.43;;;12.90;99.90;;;;;;6215443;23;20087;-88
2023/03/19 13:47:25;;;;;;;14.52;6.80;;;12.60;99.90;;;;;;6213693;23;20027;-88
2023/03/19 13:50:11;;;;;;;16.17;8.02;;;12.50;99.90;;;;;;6213362;23;20020;-87
2023/03/19 13:52:43;;;;;;;15.15;7.68;;;12.50;99.90;;;;;;6214965;23;20024;-88
2023/03/19 13:59:21;;;;;;;19.17;9.02;;;12.40;99.90;;;;;;6216239;23;20336;-91
2023/03/19 14:01:47;;;;;;;15.98;7.07;;;12.40;99.90;;;;;;6193478;23;20020;-87
2023/03/19 14:04:18;;;;;;;15.80;7.47;;;12.30;99.90;;;;;;6214035;23;20017;-91
2023/03/19 14:06:50;;;;;;;15.23;6.53;;;12.30;99.90;;;;;;6213539;23;20025;-87
2023/03/19 14:09:42;;;;;;;16.42;7.13;;;12.20;99.90;;;;;;6215541;23;20023;-87
2023/03/19 14:12:17;;;;;;;17.05;7.20;;;12.20;99.90;;;;;;6214127;23;20025;-88
2023/03/19 14:15:07;;;;;;;;;;;;;;;;;;;;;
2023/03/19 14:17:39;;;;;;;16.08;6.70;;;12.10;99.90;;;;;;6140810;23;20486;-88
2023/03/19 14:20:14;;;;;;;19.23;8.02;;;12.00;99.90;;;;;;6215184;23;20023;-90
2023/03/19 14:23:09;;;;;;;17.65;7.80;;;12.00;99.90;;;;;;6215674;23;20040;-89
2023/03/19 14:26:04;;;;;;;15.57;6.93;;;12.00;99.90;;;;;;6215623;23;20335;-87
2023/03/19 14:28:45;;;;;;;15.23;6.95;;;11.90;99.90;;;;;;6215762;23;20412;-88
2023/03/19 14:32:04;;;;;;;;;;;;;;;;;;;;;
2023/03/19 14:34:42;;;;;;;12.93;6.28;;;11.80;99.90;;;;;;6212242;23;20477;-87
2023/03/19 14:37:24;;;;;;;12.75;6.13;;;11.80;99.90;;;;;;6215880;23;20091;-88
2023/03/19 14:40:54;;;;;;;11.43;5.40;;;11.80;99.90;;;;;;6215568;23;20017;-87
2023/03/19 14:43:56;;;;;;;11.23;5.30;;;11.50;99.90;;;;;;5930670;24;20020;-86
2023/03/19 14:46:48;;;;;;;13.90;5.05;;;11.70;99.90;;;;;;5930880;24;20111;-88
2023/03/19 14:49:17;;;;;;;11.05;4.95;;;11.60;99.90;;;;;;5844749;24;20112;-87
2023/03/19 14:52:06;;;;;;;11.63;5.18;;;11.50;99.90;;;;;;5845125;24;20029;-87
2023/03/19 14:54:37;;;;;;;12.98;5.60;;;11.60;99.90;;;;;;5819246;24;20034;-87
2023/03/19 14:57:33;;;;;;;12.57;5.60;;;11.60;99.90;;;;;;5823304;24;20026;-89
2023/03/19 14:59:59;;;;;;;11.57;5.00;;;11.50;99.90;;;;;;5796916;24;20473;-89
2023/03/19 15:02:41;;;;;;;11.57;4.63;;;11.50;99.90;;;;;;5796233;24;20487;-89
2023/03/19 15:05:16;;;;;;;11.73;4.63;;;11.50;99.90;;;;;;5796324;24;20037;-88
2023/03/19 15:07:47;;;;;;;11.10;5.10;;;11.40;99.90;;;;;;5795929;24;20457;-86
2023/03/19 15:10:21;;;;;;;12.73;5.80;;;11.40;99.90;;;;;;5817845;24;20119;-86
2023/03/19 15:13:44;;;;;;;13.40;4.93;;;11.50;99.90;;;;;;5109948;27;1637300;-87
2023/03/19 15:16:37;;;;;;;11.90;5.25;;;11.40;99.90;;;;;;5068645;28;20049;-87
2023/03/19 15:19:11;;;;;;;10.93;5.45;;;11.30;99.90;;;;;;5067572;28;20084;-86
2023/03/19 15:21:40;;;;;;;12.10;5.47;;;11.10;99.90;;;;;;5067931;28;20134;-88
2023/03/19 15:24:13;;;;;;;14.52;6.32;;;11.40;99.90;;;;;;5067547;28;20140;-88
2023/03/19 15:26:39;;;;;;;13.13;5.90;;;11.40;99.90;;;;;;5068135;28;20071;-86
2023/03/19 15:29:15;;;;;;;;;;;;;;;;;;;;;
2023/03/19 15:31:45;;;;;;;14.18;6.07;;;11.30;99.90;;;;;;5048860;28;20063;-87
2023/03/19 15:34:24;;;;;;;12.65;5.18;;;11.30;99.90;;;;;;5050873;28;20127;-87
2023/03/19 15:37:06;;;;;;;13.13;6.22;;;11.30;99.90;;;;;;5051026;28;20049;-86
2023/03/19 15:39:37;;;;;;;18.02;8.18;;;11.30;99.90;;;;;;5050777;28;20052;-86
2023/03/19 15:42:04;;;;;;;13.88;6.32;;;11.20;99.90;;;;;;5067391;28;20052;-87
2023/03/19 15:44:36;;;;;;;17.23;6.70;;;11.30;99.90;;;;;;5050512;28;20358;-85
2023/03/19 15:47:04;;;;;;;16.45;7.35;;;11.20;99.90;;;;;;5050898;28;20068;-85
2023/03/19 15:49:37;;;;;;;16.58;7.88;;;11.20;99.90;;;;;;5050805;28;20040;-85
2023/03/19 15:52:10;;;;;;;18.95;7.38;;;11.20;99.90;;;;;;5053332;28;20115;-86
2023/03/19 15:54:36;;;;;;;16.35;6.80;;;11.10;99.90;;;;;;5149572;27;20088;-86
2023/03/19 15:57:07;;;;;;;14.75;7.20;;;11.20;99.90;;;;;;5133342;27;20059;-87
2023/03/19 15:59:33;;;;;;;15.13;5.90;;;11.10;99.90;;;;;;5132570;27;20050;-87
2023/03/19 16:02:12;;;;;;;16.30;7.18;;;11.20;99.90;;;;;;5150345;27;20112;-85
2023/03/19 16:04:53;;;;;;;12.70;5.85;;;11.10;99.90;;;;;;5132576;27;20379;-88
2023/03/19 16:07:49;;;;;;;16.52;7.22;;;11.10;99.90;;;;;;5151110;27;20109;-86
2023/03/19 16:10:31;;;;;;;;;;;11.10;99.90;;;;;;5144744;27;20440;-87
2023/03/19 16:13:20;;;;;;;15.80;7.28;;;11.10;99.90;;;;;;5132297;27;19920;-87
2023/03/19 16:16:04;;;;;;;12.88;5.57;;;10.80;99.90;;;;;;5134866;27;20089;-85
2023/03/19 16:18:42;;;;;;;12.32;5.22;;;10.70;99.90;;;;;;5130306;27;20043;-85
2023/03/19 16:21:38;;;;;;;15.60;7.15;;;11.10;99.90;;;;;;5149459;27;20093;-85
2023/03/19 16:24:31;;;;;;;13.77;5.05;;;11.10;99.90;;;;;;5120030;27;20047;-83
2023/03/19 16:26:58;;;;;;;13.88;5.97;;;11.00;99.90;;;;;;5118993;27;20078;-84
2023/03/19 16:29:35;;;;;;;14.52;5.15;;;11.00;99.90;;;;;;5117392;27;20514;-88
2023/03/19 16:32:33;;;;;;;14.35;6.03;;;11.10;99.90;;;;;;5101302;27;20117;-88
2023/03/19 16:35:33;;;;;;;12.75;4.90;;;11.50;99.90;;;;;;5112782;28;20480;-87
2023/03/19 16:38:48;;;;;;;12.07;4.82;;;10.90;99.90;;;;;;5116615;27;20070;-86
2023/03/19 16:41:25;;;;;;;13.25;4.68;;;10.90;99.90;;;;;;5035566;28;20572;-88
2023/03/19 16:43:53;;;;;;;16.73;6.32;;;11.40;99.90;;;;;;5061589;28;20049;-85
2023/03/19 16:46:19;;;;;;;12.93;5.93;;;10.90;99.90;;;;;;5060678;28;20057;-84
2023/03/19 16:48:45;;;;;;;13.65;6.32;;;10.90;99.90;;;;;;5037067;28;20056;-84
2023/03/19 16:51:16;;;;;;;15.50;6.63;;;10.90;99.90;;;;;;5048056;28;20077;-84
2023/03/19 16:53:57;;;;;;;;;;;;;;;;;;;;;
2023/03/19 16:56:35;;;;;;;12.18;5.75;;;10.80;99.90;;;;;;5031481;28;20400;-89
2023/03/19 16:59:01;;;;;;;15.48;6.22;;;10.80;99.90;;;;;;5044317;28;20040;-85
2023/03/19 17:01:27;;;;;;;14.57;5.70;;;10.70;99.90;;;;;;5032752;28;20448;-87
2023/03/19 17:03:56;;;;;;;12.68;5.80;;;10.80;99.90;;;;;;5019507;28;20049;-87
2023/03/19 17:06:22;;;;;;;14.73;6.00;;;10.60;99.90;;;;;;5059454;28;20056;-88
2023/03/19 17:08:48;;;;;;;14.77;5.95;;;10.70;99.90;;;;;;5035826;28;20509;-88
2023/03/19 17:11:24;;;;;;;13.48;5.78;;;10.60;99.90;;;;;;5053012;28;20054;-90
2023/03/19 17:13:51;;;;;;;;;;;10.50;99.90;;;;;;5052364;28;20437;-88
2023/03/19 17:16:16;;;;;;;16.17;5.85;;;10.00;99.90;;;;;;5052461;28;19951;-87
2023/03/19 17:18:46;;;;;;;13.10;5.38;;;10.40;99.90;;;;;;5074277;28;20052;-88
2023/03/19 17:21:33;;;;;;;10.52;4.40;;;10.50;99.90;;;;;;5081531;28;20040;-85
2023/03/19 17:28:41;;;;;;;;;;;;;;;;;;;;;
2023/03/19 17:35:32;;;;;;;9.82;3.42;;;10.30;99.90;;;;;;4983306;28;20086;-90
2023/03/19 17:45:49;;;;;;;9.60;3.38;;;10.20;99.90;;;;;;4928385;29;20132;-87
2023/03/19 17:48:36;;;;;;;6.32;3.08;;;10.10;99.90;;;;;;4926952;29;20114;-87
2023/03/19 17:51:16;;;;;;;8.32;3.20;;;10.10;99.90;;;;;;4930687;29;20051;-88
2023/03/19 17:53:51;;;;;;;9.07;3.63;;;10.10;99.90;;;;;;4919786;29;20058;-87
2023/03/19 17:59:07;;;;;;;11.00;3.53;;;10.00;99.90;;;;;;5207898;22;20055;-89
2023/03/19 18:01:57;;;;;;;11.52;4.93;;;9.50;99.90;;;;;;5096169;28;20476;-88
2023/03/19 18:04:23;;;;;;;8.80;3.33;;;10.00;99.90;;;;;;5109267;28;20091;-87
2023/03/19 18:07:03;;;;;;;6.90;3.30;;;9.90;99.90;;;;;;5095083;28;20196;-89
2023/03/19 18:09:42;;;;;;;7.28;2.95;;;9.90;99.90;;;;;;5114282;28;20126;-89
2023/03/19 18:12:07;;;;;;;7.93;3.22;;;9.80;99.90;;;;;;5087870;28;20036;-88
2023/03/19 18:14:39;;;;;;;10.15;3.70;;;9.80;99.90;;;;;;5095560;28;20346;-88
2023/03/19 18:17:07;;;;;;;8.77;3.63;;;9.80;99.90;;;;;;5113476;28;20039;-88
2023/03/19 18:19:38;;;;;;;7.45;2.75;;;9.80;99.90;;;;;;5094656;28;20073;-89
2023/03/19 18:22:16;;;;;;;85.18;79.70;;;9.80;99.90;;;;;;5094621;28;20585;-86
2023/03/19 18:24:42;;;;;;;9.90;3.60;;;9.80;99.90;;;;;;5078721;28;20039;-85
2023/03/19 18:27:11;;;;;;;6.40;2.70;;;9.80;99.90;;;;;;5094183;28;20549;-85
2023/03/19 18:29:37;;;;;;;8.80;3.72;;;9.60;99.90;;;;;;5113629;28;20035;-86
2023/03/19 18:32:11;;;;;;;8.55;3.25;;;9.60;99.90;;;;;;5078216;28;20070;-88
2023/03/19 18:34:37;;;;;;;7.97;3.10;;;9.60;99.90;;;;;;5094831;28;20035;-88
2023/03/19 18:37:03;;;;;;;8.20;4.07;;;9.50;99.90;;;;;;5093551;28;20043;-87
2023/03/19 18:39:28;;;;;;;7.65;3.55;;;9.00;99.90;;;;;;5113616;28;20119;-87
2023/03/19 18:41:54;;;;;;;10.38;4.38;;;9.50;99.90;;;;;;5113459;28;20119;-86
2023/03/19 18:44:23;;;;;;;9.55;3.75;;;10.50;99.90;;;;;;5087295;28;20039;-86
2023/03/19 18:46:49;;;;;;;9.30;3.55;;;10.00;99.90;;;;;;5112945;28;20101;-86
2023/03/19 18:49:26;;;;;;;10.18;3.53;;;9.40;99.90;;;;;;5095051;28;20043;-85
2023/03/19 18:51:53;;;;;;;9.63;3.60;;;9.40;99.90;;;;;;5095029;28;20061;-87
2023/03/19 18:54:21;;;;;;;7.63;3.13;;;9.30;99.90;;;;;;5078049;28;20131;-86
2023/03/19 18:56:49;;;;;;;6.72;2.67;;;9.30;99.90;;;;;;5092774;28;20092;-85
2023/03/19 18:59:27;;;;;;;6.97;2.35;;;9.30;99.90;;;;;;5093083;28;20048;-88
2023/03/19 19:02:00;;;;;;;6.47;3.00;;;9.30;99.90;;;;;;5091255;28;20056;-88
2023/03/19 19:04:26;;;;;;;6.22;2.53;;;9.30;99.90;;;;;;5112903;28;20086;-84
2023/03/19 19:06:53;;;;;;;7.80;3.03;;;9.20;99.90;;;;;;5113511;28;20516;-86
2023/03/19 19:09:19;;;;;;;7.93;3.83;;;9.20;99.90;;;;;;5094381;28;20046;-85
2023/03/19 19:11:46;;;;;;;7.95;3.65;;;9.90;99.90;;;;;;5112889;28;20555;-86
2023/03/19 19:14:20;;;;;;;6.05;2.72;;;9.40;99.90;;;;;;5094635;28;20166;-88
2023/03/19 19:16:49;;;;;;;5.28;2.28;;;9.10;99.90;;;;;;5095000;28;20052;-83
2023/03/19 19:19:18;;;;;;;7.35;3.17;;;9.10;99.90;;;;;;5092238;28;20051;-85
2023/03/19 19:21:47;;;;;;;5.13;1.95;;;9.10;99.90;;;;;;5113156;28;20042;-85
2023/03/19 19:24:13;;;;;;;6.15;2.30;;;9.00;99.90;;;;;;5094641;28;20035;-86
2023/03/19 19:26:44;;;;;;;5.18;2.13;;;9.00;99.90;;;;;;5094577;28;20047;-86
2023/03/19 19:29:31;;;;;;;6.00;2.10;;;8.90;99.90;;;;;;5112691;28;20046;-85